createdAt,value
2023-05-08T00:01:30.473Z,11.02
2023-05-08T00:03:57.463Z,11.04
2023-05-08T00:06:24.411Z,10.99
2023-05-08T00:08:51.184Z,10.96
2023-05-08T00:11:17.848Z,11.04
2023-05-08T00:13:44.662Z,11.17
2023-05-08T00:16:12.831Z,11.26
2023-05-08T00:18:40.065Z,11.26
2023-05-08T00:21:07.440Z,11.28
2023-05-08T00:23:34.414Z,11.25
2023-05-08T00:26:01.332Z,11.06
2023-05-08T00:28:28.193Z,10.87
2023-05-08T00:30:55.052Z,10.85
2023-05-08T00:33:21.856Z,10.98
2023-05-08T00:35:48.657Z,10.88
2023-05-08T00:38:15.390Z,10.95
2023-05-08T00:40:43.100Z,10.88
2023-05-08T00:43:09.933Z,10.92
2023-05-08T00:45:38.279Z,10.97
2023-05-08T00:48:05.501Z,10.97
2023-05-08T00:50:33.061Z,10.99
2023-05-08T00:53:01.506Z,11.05
2023-05-08T00:55:28.521Z,11.04
2023-05-08T00:57:55.338Z,11.04
2023-05-08T01:00:23.169Z,11.10
2023-05-08T01:02:50.180Z,11.11
2023-05-08T01:05:17.130Z,10.97
2023-05-08T01:07:44.430Z,10.86
2023-05-08T01:10:11.478Z,10.82
2023-05-08T01:12:59.332Z,10.91
2023-05-08T01:15:54.847Z,10.93
2023-05-08T01:18:29.704Z,11.03
2023-05-08T01:21:18.494Z,11.00
2023-05-08T01:24:10.606Z,10.98
2023-05-08T01:26:56.006Z,11.01
2023-05-08T01:29:46.745Z,11.04
2023-05-08T01:32:24.450Z,11.05
2023-05-08T01:35:16.484Z,11.05
2023-05-08T01:37:53.753Z,11.09
2023-05-08T01:40:40.210Z,11.09
2023-05-08T01:44:01.492Z,11.12
2023-05-08T01:46:28.866Z,11.12
2023-05-08T01:49:13.330Z,11.08
2023-05-08T01:51:49.766Z,10.97
2023-05-08T01:54:20.722Z,10.87
2023-05-08T01:56:48.408Z,10.79
2023-05-08T01:59:17.714Z,10.86
2023-05-08T02:01:45.451Z,10.74
2023-05-08T02:04:12.891Z,10.59
2023-05-08T02:06:40.227Z,10.53
2023-05-08T02:09:08.927Z,10.57
2023-05-08T02:11:36.824Z,10.55
2023-05-08T02:14:05.088Z,10.61
2023-05-08T02:16:32.147Z,10.54
2023-05-08T02:19:00.927Z,10.57
2023-05-08T02:21:28.114Z,10.46
2023-05-08T02:23:57.505Z,10.42
2023-05-08T02:26:24.596Z,10.46
2023-05-08T02:28:53.446Z,10.47
2023-05-08T02:31:21.305Z,10.53
2023-05-08T02:33:49.123Z,10.51
2023-05-08T02:36:18.332Z,10.53
2023-05-08T02:38:47.342Z,10.45
2023-05-08T02:41:14.491Z,10.39
2023-05-08T02:43:41.789Z,10.32
2023-05-08T02:46:19.004Z,10.38
2023-05-08T02:49:05.484Z,10.56
2023-05-08T02:51:47.513Z,10.53
2023-05-08T02:54:32.750Z,10.58
2023-05-08T02:57:22.276Z,10.55
2023-05-08T03:00:01.619Z,10.56
2023-05-08T03:02:34.034Z,10.62
2023-05-08T03:05:06.227Z,10.68
2023-05-08T03:07:34.608Z,10.72
2023-05-08T03:10:05.940Z,10.77
2023-05-08T03:12:34.186Z,10.75
2023-05-08T03:15:15.440Z,10.86
2023-05-08T03:17:43.664Z,10.80
2023-05-08T03:20:13.035Z,10.60
2023-05-08T03:22:41.049Z,10.49
2023-05-08T03:25:09.426Z,10.47
2023-05-08T03:27:37.655Z,10.55
2023-05-08T03:30:05.731Z,10.65
2023-05-08T03:32:34.151Z,10.62
2023-05-08T03:35:01.682Z,10.78
2023-05-08T03:37:28.895Z,10.69
2023-05-08T03:39:56.289Z,10.86
2023-05-08T03:42:26.880Z,10.86
2023-05-08T03:44:54.487Z,10.91
2023-05-08T03:47:22.109Z,10.92
2023-05-08T03:49:50.384Z,10.94
2023-05-08T03:52:17.478Z,10.95
2023-05-08T03:54:44.612Z,10.85
2023-05-08T03:57:11.422Z,10.93
2023-05-08T04:00:13.774Z,10.96
2023-05-08T04:02:49.777Z,10.94
2023-05-08T04:05:38.746Z,10.94
2023-05-08T04:08:26.109Z,10.88
2023-05-08T04:11:30.908Z,10.95
2023-05-08T04:14:05.310Z,10.98
2023-05-08T04:16:37.804Z,11.06
2023-05-08T04:19:09.657Z,11.04
2023-05-08T04:21:37.209Z,11.04
2023-05-08T04:24:04.937Z,11.03
2023-05-08T04:26:31.926Z,10.99
2023-05-08T04:28:58.706Z,10.92
2023-05-08T04:31:27.098Z,10.96
2023-05-08T04:33:54.564Z,11.01
2023-05-08T04:36:21.257Z,11.06
2023-05-08T04:38:48.021Z,11.09
2023-05-08T04:41:16.204Z,11.05
2023-05-08T04:43:42.960Z,11.06
2023-05-08T04:46:11.006Z,11.03
2023-05-08T04:48:37.784Z,11.03
2023-05-08T04:51:04.641Z,11.02
2023-05-08T04:53:31.389Z,11.04
2023-05-08T04:55:58.751Z,11.01
2023-05-08T04:58:25.428Z,11.08
2023-05-08T05:00:52.225Z,11.09
2023-05-08T05:03:19.090Z,11.10
2023-05-08T05:05:45.934Z,11.09
2023-05-08T05:08:12.794Z,11.17
2023-05-08T05:10:40.174Z,11.30
2023-05-08T05:13:07.036Z,11.37
2023-05-08T05:15:33.973Z,11.47
2023-05-08T05:18:00.771Z,11.46
2023-05-08T05:20:27.666Z,11.52
2023-05-08T05:22:54.394Z,11.50
2023-05-08T05:25:21.373Z,11.49
2023-05-08T05:27:48.170Z,11.40
2023-05-08T05:30:15.351Z,11.43
2023-05-08T05:32:42.681Z,11.41
2023-05-08T05:35:10.655Z,11.38
2023-05-08T05:37:37.860Z,11.50
2023-05-08T05:40:05.172Z,11.56
2023-05-08T05:42:32.063Z,11.57
2023-05-08T05:44:59.280Z,11.69
2023-05-08T05:47:26.257Z,11.57
2023-05-08T05:49:53.098Z,11.41
2023-05-08T05:52:19.989Z,11.50
2023-05-08T05:54:46.923Z,11.53
2023-05-08T05:57:14.207Z,11.52
2023-05-08T05:59:41.425Z,11.56
2023-05-08T06:02:10.495Z,11.53
2023-05-08T06:04:37.546Z,11.56
2023-05-08T06:07:04.356Z,11.54
2023-05-08T06:09:31.159Z,11.57
2023-05-08T06:11:57.910Z,11.53
2023-05-08T06:14:24.821Z,11.59
2023-05-08T06:16:51.702Z,11.66
2023-05-08T06:19:18.572Z,11.84
2023-05-08T06:21:45.555Z,11.85
2023-05-08T06:24:12.309Z,11.99
2023-05-08T06:26:39.067Z,11.95
2023-05-08T06:29:05.903Z,11.89
2023-05-08T06:31:32.987Z,11.74
2023-05-08T06:33:59.908Z,11.84
2023-05-08T06:36:27.383Z,11.91
2023-05-08T06:38:54.235Z,11.90
2023-05-08T06:41:21.950Z,11.79
2023-05-08T06:43:48.884Z,11.83
2023-05-08T06:46:16.214Z,11.85
2023-05-08T06:48:43.087Z,11.86
2023-05-08T06:51:09.885Z,11.92
2023-05-08T06:53:36.867Z,11.90
2023-05-08T06:56:03.713Z,11.86
2023-05-08T06:58:32.302Z,11.97
2023-05-08T07:01:01.981Z,12.08
2023-05-08T07:03:28.941Z,12.23
2023-05-08T07:05:56.210Z,12.40
2023-05-08T07:08:23.105Z,12.48
2023-05-08T07:10:49.854Z,12.55
2023-05-08T07:13:20.209Z,12.42
2023-05-08T07:15:47.105Z,12.38
2023-05-08T07:18:14.079Z,12.43
2023-05-08T07:20:40.955Z,12.40
2023-05-08T07:23:07.752Z,12.61
2023-05-08T07:25:34.612Z,12.80
2023-05-08T07:28:01.569Z,12.90
2023-05-08T07:30:29.120Z,12.87
2023-05-08T07:32:56.056Z,12.78
2023-05-08T07:35:23.077Z,12.78
2023-05-08T07:37:50.102Z,12.95
2023-05-08T07:40:17.074Z,13.16
2023-05-08T07:42:45.100Z,13.06
2023-05-08T07:45:13.676Z,13.01
2023-05-08T07:47:52.522Z,13.12
2023-05-08T07:50:19.730Z,13.13
2023-05-08T07:52:49.770Z,13.24
2023-05-08T07:55:17.242Z,13.24
2023-05-08T07:57:44.504Z,13.40
2023-05-08T08:00:13.697Z,13.32
2023-05-08T08:02:41.392Z,13.70
2023-05-08T08:05:09.263Z,13.61
2023-05-08T08:07:36.187Z,13.54
2023-05-08T08:10:06.298Z,13.36
2023-05-08T08:12:33.377Z,13.33
2023-05-08T08:15:00.374Z,13.34
2023-05-08T08:17:28.851Z,13.41
2023-05-08T08:19:56.582Z,13.51
2023-05-08T08:22:24.229Z,13.40
2023-05-08T08:24:54.040Z,13.48
2023-05-08T08:27:21.768Z,13.71
2023-05-08T08:29:48.605Z,13.67
2023-05-08T08:32:15.513Z,13.71
2023-05-08T08:34:42.514Z,13.74
2023-05-08T08:37:09.322Z,13.80
2023-05-08T08:39:36.338Z,14.05
2023-05-08T08:42:03.900Z,14.12
2023-05-08T08:44:30.792Z,14.30
2023-05-08T08:46:59.460Z,14.28
2023-05-08T08:49:31.777Z,14.23
2023-05-08T08:52:16.178Z,14.33
2023-05-08T08:54:44.508Z,14.46
2023-05-08T08:57:13.102Z,14.65
2023-05-08T08:59:40.405Z,14.74
2023-05-08T09:02:12.013Z,14.92
2023-05-08T09:04:39.231Z,14.80
2023-05-08T09:07:08.786Z,14.83
2023-05-08T09:09:41.874Z,14.74
2023-05-08T09:12:09.071Z,14.89
2023-05-08T09:14:36.284Z,14.83
2023-05-08T09:17:03.291Z,14.95
2023-05-08T09:19:30.279Z,14.84
2023-05-08T09:22:00.930Z,14.72
2023-05-08T09:24:53.726Z,15.19
2023-05-08T09:27:25.030Z,15.39
2023-05-08T09:30:11.649Z,15.45
2023-05-08T09:32:40.114Z,15.56
2023-05-08T09:35:08.574Z,15.73
2023-05-08T09:37:39.897Z,15.74
2023-05-08T09:40:21.039Z,15.76
2023-05-08T09:42:49.164Z,16.17
2023-05-08T09:45:28.954Z,16.44
2023-05-08T09:47:56.056Z,16.58
2023-05-08T09:50:23.201Z,16.99
2023-05-08T09:52:51.008Z,16.96
2023-05-08T09:55:18.261Z,16.83
2023-05-08T09:57:59.229Z,16.98
2023-05-08T10:00:27.570Z,16.82
2023-05-08T10:03:00.188Z,16.90
2023-05-08T10:05:33.038Z,16.89
2023-05-08T10:08:18.636Z,17.26
2023-05-08T10:10:45.444Z,17.26
2023-05-08T10:13:12.462Z,17.52
2023-05-08T10:15:42.484Z,17.62
2023-05-08T10:18:11.207Z,17.94
2023-05-08T10:20:44.512Z,18.44
2023-05-08T10:23:17.666Z,18.26
2023-05-08T10:25:48.880Z,18.53
2023-05-08T10:28:16.913Z,18.89
2023-05-08T10:30:47.468Z,18.34
2023-05-08T10:33:15.872Z,18.30
2023-05-08T10:35:42.685Z,17.92
2023-05-08T10:38:10.165Z,18.00
2023-05-08T10:40:38.476Z,17.84
2023-05-08T10:43:07.391Z,17.90
2023-05-08T10:45:34.782Z,17.95
2023-05-08T10:48:26.110Z,17.77
2023-05-08T10:51:16.501Z,17.84
2023-05-08T10:54:18.394Z,17.56
2023-05-08T10:56:45.235Z,17.88
2023-05-08T10:59:23.949Z,18.25
2023-05-08T11:01:50.849Z,18.50
2023-05-08T11:04:23.010Z,18.32
2023-05-08T11:06:53.293Z,18.18
2023-05-08T11:09:28.518Z,18.15
2023-05-08T11:12:16.842Z,18.33
2023-05-08T11:14:45.042Z,18.11
2023-05-08T11:17:11.874Z,18.86
2023-05-08T11:19:39.048Z,19.06
2023-05-08T11:22:23.575Z,18.86
2023-05-08T11:24:58.554Z,18.86
2023-05-08T11:27:36.847Z,18.86
2023-05-08T11:30:24.264Z,19.01
2023-05-08T11:33:03.217Z,18.97
2023-05-08T11:35:47.958Z,19.11
2023-05-08T11:38:22.553Z,18.71
2023-05-08T11:40:50.518Z,18.92
2023-05-08T11:43:38.452Z,18.88
2023-05-08T11:46:14.790Z,19.30
2023-05-08T11:48:41.654Z,19.28
2023-05-08T11:51:08.666Z,19.16
2023-05-08T11:53:36.682Z,19.37
2023-05-08T11:56:04.041Z,19.39
2023-05-08T11:58:31.359Z,19.59
2023-05-08T12:00:58.238Z,19.84
2023-05-08T12:03:26.087Z,20.06
2023-05-08T12:05:56.582Z,20.24
2023-05-08T12:08:23.809Z,20.37
2023-05-08T12:10:53.627Z,20.00
2023-05-08T12:13:22.076Z,20.16
2023-05-08T12:15:51.006Z,19.95
2023-05-08T12:18:18.214Z,20.09
2023-05-08T12:20:45.167Z,20.22
2023-05-08T12:23:12.310Z,20.07
2023-05-08T12:25:40.026Z,20.52
2023-05-08T12:28:07.731Z,20.41
2023-05-08T12:30:34.748Z,20.02
2023-05-08T12:33:03.184Z,20.29
2023-05-08T12:35:30.122Z,20.41
2023-05-08T12:38:07.212Z,20.45
2023-05-08T12:40:34.756Z,20.23
2023-05-08T12:43:03.056Z,20.18
2023-05-08T12:45:33.473Z,20.33
2023-05-08T12:48:02.381Z,20.41
2023-05-08T12:50:30.865Z,20.46
2023-05-08T12:53:08.161Z,20.62
2023-05-08T12:55:36.733Z,20.37
2023-05-08T12:58:15.702Z,20.52
2023-05-08T13:00:47.723Z,20.49
2023-05-08T13:03:28.195Z,20.52
2023-05-08T13:05:57.567Z,20.67
2023-05-08T13:08:37.835Z,20.56
2023-05-08T13:11:07.868Z,20.56
2023-05-08T13:13:36.223Z,20.70
2023-05-08T13:16:04.806Z,20.98
2023-05-08T13:18:32.149Z,20.64
2023-05-08T13:20:59.733Z,20.59
2023-05-08T13:23:26.566Z,20.58
2023-05-08T13:25:53.396Z,20.65
2023-05-08T13:28:20.343Z,21.00
2023-05-08T13:30:47.150Z,21.02
2023-05-08T13:33:13.949Z,20.93
2023-05-08T13:35:40.912Z,20.74
2023-05-08T13:38:07.766Z,20.47
2023-05-08T13:40:34.684Z,20.29
2023-05-08T13:43:01.711Z,20.25
2023-05-08T13:45:28.508Z,20.51
2023-05-08T13:47:55.498Z,20.61
2023-05-08T13:50:22.488Z,20.37
2023-05-08T13:52:51.099Z,20.36
2023-05-08T13:55:22.269Z,20.39
2023-05-08T13:57:49.195Z,20.29
2023-05-08T14:00:16.471Z,20.37
2023-05-08T14:02:43.585Z,20.37
2023-05-08T14:05:10.615Z,20.45
2023-05-08T14:07:37.463Z,20.69
2023-05-08T14:10:05.122Z,20.64
2023-05-08T14:12:36.135Z,20.38
2023-05-08T14:15:07.107Z,20.63
2023-05-08T14:17:33.950Z,20.41
2023-05-08T14:20:00.841Z,20.59
2023-05-08T14:22:27.888Z,20.54
2023-05-08T14:24:54.743Z,20.55
2023-05-08T14:27:21.709Z,20.67
2023-05-08T14:29:48.563Z,20.74
2023-05-08T14:32:15.473Z,20.41
2023-05-08T14:34:42.391Z,20.20
2023-05-08T14:37:09.204Z,20.22
2023-05-08T14:39:36.233Z,20.26
2023-05-08T14:44:33.209Z,20.09
2023-05-08T14:47:00.061Z,20.14
2023-05-08T14:49:36.698Z,20.03
2023-05-08T14:52:06.166Z,20.08
2023-05-08T14:54:33.615Z,19.85
2023-05-08T14:57:00.841Z,19.66
2023-05-08T14:59:27.736Z,19.44
2023-05-08T15:01:54.700Z,19.41
2023-05-08T15:04:21.702Z,19.68
2023-05-08T15:06:48.510Z,19.62
2023-05-08T15:09:16.962Z,19.36
2023-05-08T15:11:44.068Z,19.34
2023-05-08T15:14:11.111Z,19.29
2023-05-08T15:16:38.021Z,19.31
2023-05-08T15:19:05.023Z,19.49
2023-05-08T15:21:31.851Z,19.55
2023-05-08T15:23:58.932Z,19.59
2023-05-08T15:26:25.981Z,19.49
2023-05-08T15:28:52.948Z,19.48
2023-05-08T15:31:19.711Z,19.06
2023-05-08T15:33:47.924Z,18.80
2023-05-08T15:36:14.855Z,18.77
2023-05-08T15:38:41.994Z,18.65
2023-05-08T15:41:12.785Z,18.49
2023-05-08T15:43:41.405Z,18.36
2023-05-08T15:46:08.190Z,18.44
2023-05-08T15:48:35.494Z,18.67
2023-05-08T15:51:02.425Z,18.83
2023-05-08T15:53:29.168Z,18.64
2023-05-08T15:55:57.362Z,18.34
2023-05-08T15:58:24.587Z,18.26
2023-05-08T16:00:51.798Z,18.17
2023-05-08T16:03:19.202Z,18.00
2023-05-08T16:05:47.247Z,17.87
2023-05-08T16:08:17.696Z,17.97
2023-05-08T16:10:45.590Z,18.07
2023-05-08T16:13:13.126Z,17.83
2023-05-08T16:15:40.902Z,18.04
2023-05-08T16:18:16.079Z,18.01
2023-05-08T16:20:45.024Z,17.83
2023-05-08T16:23:16.429Z,17.65
2023-05-08T16:25:44.988Z,17.65
2023-05-08T16:28:12.980Z,17.65
2023-05-08T16:30:42.036Z,17.55
2023-05-08T16:33:39.015Z,17.58
2023-05-08T16:43:44.218Z,17.46
2023-05-08T16:46:29.267Z,17.34
2023-05-08T16:49:24.368Z,17.42
2023-05-08T16:51:55.497Z,17.30
2023-05-08T16:54:39.987Z,17.14
2023-05-08T16:57:08.977Z,17.05
2023-05-08T16:59:40.347Z,17.04
2023-05-08T17:02:14.461Z,16.96
2023-05-08T17:04:43.624Z,16.96
2023-05-08T17:07:59.104Z,16.98
2023-05-08T17:10:34.600Z,16.91
2023-05-08T17:13:14.845Z,16.78
2023-05-08T17:35:52.775Z,16.37
2023-05-08T17:38:23.124Z,16.33
2023-05-08T17:40:54.624Z,16.24
2023-05-08T17:43:23.196Z,16.26
2023-05-08T17:46:00.935Z,16.31
2023-05-08T17:48:35.205Z,16.22
2023-05-08T17:51:12.822Z,16.06
2023-05-08T17:53:44.444Z,16.04
2023-05-08T17:56:12.427Z,15.85
2023-05-08T17:58:39.630Z,15.95
2023-05-08T18:01:07.827Z,15.97
2023-05-08T18:03:38.585Z,15.83
2023-05-08T18:06:06.134Z,15.79
2023-05-08T18:08:33.858Z,15.66
2023-05-08T18:11:00.637Z,15.66
2023-05-08T18:13:27.838Z,15.58
2023-05-08T18:15:54.715Z,15.48
2023-05-08T18:18:21.541Z,15.51
2023-05-08T18:20:48.281Z,15.49
2023-05-08T18:23:14.867Z,15.41
2023-05-08T18:25:41.932Z,15.38
2023-05-08T18:28:08.749Z,15.27
2023-05-08T18:30:36.633Z,15.14
2023-05-08T18:33:03.508Z,15.10
2023-05-08T18:35:30.305Z,14.95
2023-05-08T18:37:57.162Z,14.95
2023-05-08T18:40:24.042Z,14.88
2023-05-08T18:42:51.112Z,14.86
2023-05-08T18:45:17.828Z,14.88
2023-05-08T18:47:44.555Z,14.83
2023-05-08T18:50:11.501Z,14.80
2023-05-08T18:52:38.407Z,14.72
2023-05-08T18:55:06.997Z,14.78
2023-05-08T18:57:33.930Z,14.79
2023-05-08T19:00:00.814Z,14.83
2023-05-08T19:02:28.226Z,14.82
2023-05-08T19:04:55.112Z,14.69
2023-05-08T19:07:22.472Z,14.78
2023-05-08T19:09:50.038Z,14.72
2023-05-08T19:12:18.402Z,14.77
2023-05-08T19:14:46.925Z,14.75
2023-05-08T19:17:16.600Z,14.65
2023-05-08T19:19:44.602Z,14.60
2023-05-08T19:22:11.629Z,14.52
2023-05-08T19:24:42.254Z,14.60
2023-05-08T19:27:15.226Z,14.59
2023-05-08T19:29:44.885Z,14.62
2023-05-08T19:32:12.746Z,14.53
2023-05-08T19:34:41.948Z,14.45
2023-05-08T19:37:08.991Z,14.48
2023-05-08T19:39:39.032Z,14.54
2023-05-08T19:42:15.164Z,14.53
2023-05-08T19:44:47.573Z,14.48
2023-05-08T19:47:16.988Z,14.41
2023-05-08T19:49:49.984Z,14.40
2023-05-08T19:52:21.851Z,14.36
2023-05-08T19:54:54.730Z,14.41
2023-05-08T19:57:27.563Z,14.34
2023-05-08T20:00:08.765Z,14.24
2023-05-08T20:02:40.735Z,14.29
2023-05-08T20:07:38.907Z,14.09
2023-05-08T20:10:07.859Z,14.21
2023-05-08T20:12:36.420Z,14.05
2023-05-08T20:15:06.951Z,14.03
2023-05-08T20:17:36.642Z,13.91
2023-05-08T20:20:05.080Z,13.88
2023-05-08T20:22:33.700Z,13.87
2023-05-08T20:25:02.784Z,13.83
2023-05-08T20:27:32.697Z,13.87
2023-05-08T20:30:00.353Z,13.76
2023-05-08T20:32:31.229Z,13.73
2023-05-08T20:34:58.974Z,13.69
2023-05-08T20:37:25.828Z,13.75
2023-05-08T20:39:52.531Z,13.77
2023-05-08T20:42:19.291Z,13.72
2023-05-08T20:44:46.204Z,13.73
2023-05-08T20:47:13.873Z,13.66
2023-05-08T20:49:40.532Z,13.61
2023-05-08T20:52:07.158Z,13.61
2023-05-08T20:54:33.747Z,13.50
2023-05-08T20:57:02.061Z,13.46
2023-05-08T20:59:28.820Z,13.60
2023-05-08T21:01:55.864Z,13.64
2023-05-08T21:04:22.632Z,13.55
2023-05-08T21:06:50.731Z,13.50
2023-05-08T21:09:18.881Z,13.46
2023-05-08T21:11:45.489Z,13.41
2023-05-08T21:14:12.461Z,13.45
2023-05-08T21:16:39.083Z,13.44
2023-05-08T21:19:05.734Z,13.49
2023-05-08T21:21:32.349Z,13.41
2023-05-08T21:23:58.961Z,13.42
2023-05-08T21:26:25.707Z,13.39
2023-05-08T21:28:53.723Z,13.38
2023-05-08T21:31:20.610Z,13.32
2023-05-08T21:33:47.292Z,13.33
2023-05-08T21:36:14.139Z,13.28
2023-05-08T21:38:41.542Z,13.34
2023-05-08T21:41:08.528Z,13.25
2023-05-08T21:43:36.107Z,13.21
2023-05-08T21:46:06.760Z,13.24
2023-05-08T21:48:34.059Z,13.26
2023-05-08T21:51:00.724Z,13.23
2023-05-08T21:53:27.493Z,13.15
2023-05-08T21:55:54.149Z,13.14
2023-05-08T21:58:20.815Z,13.16
2023-05-08T22:00:47.420Z,13.14
2023-05-08T22:03:14.282Z,13.13
2023-05-08T22:05:40.952Z,13.15
2023-05-08T22:08:07.619Z,13.16
2023-05-08T22:10:34.211Z,13.11
2023-05-08T22:13:01.897Z,13.07
2023-05-08T22:15:30.582Z,13.13
2023-05-08T22:17:59.044Z,13.15
2023-05-08T22:20:25.926Z,13.09
2023-05-08T22:22:52.633Z,13.11
2023-05-08T22:25:19.600Z,13.09
2023-05-08T22:27:46.397Z,13.00
2023-05-08T22:30:13.500Z,13.02
2023-05-08T22:32:40.150Z,12.90
2023-05-08T22:35:07.020Z,12.92
2023-05-08T22:37:33.710Z,12.94
2023-05-08T22:40:00.425Z,12.88
2023-05-08T22:42:27.199Z,12.74
2023-05-08T22:44:53.865Z,12.63
2023-05-08T22:47:20.548Z,12.47
2023-05-08T22:49:48.117Z,12.58
2023-05-08T22:52:14.783Z,12.55
2023-05-08T22:54:41.436Z,12.61
2023-05-08T22:57:08.778Z,12.57
2023-05-08T22:59:36.396Z,12.47
2023-05-08T23:02:03.343Z,12.40
2023-05-08T23:04:30.092Z,12.44
2023-05-08T23:06:56.930Z,12.44
2023-05-08T23:09:23.869Z,12.44
2023-05-08T23:11:51.529Z,12.47
2023-05-08T23:14:18.321Z,12.48
2023-05-08T23:16:45.160Z,12.38
2023-05-08T23:19:12.026Z,12.35
2023-05-08T23:21:38.912Z,12.38
2023-05-08T23:24:05.971Z,12.35
2023-05-08T23:26:32.809Z,12.32
2023-05-08T23:28:59.614Z,12.35
2023-05-08T23:31:26.471Z,12.38
2023-05-08T23:33:53.391Z,12.32
2023-05-08T23:36:20.184Z,12.31
2023-05-08T23:38:46.985Z,12.23
2023-05-08T23:41:14.031Z,12.21
2023-05-08T23:43:41.134Z,12.25
2023-05-08T23:46:08.090Z,12.24
2023-05-08T23:48:34.981Z,12.27
2023-05-08T23:51:01.755Z,12.19
2023-05-08T23:53:28.603Z,12.17
2023-05-08T23:55:55.554Z,12.22
2023-05-08T23:58:22.402Z,12.24
